createdAt,value
2018-09-13T00:01:27.614Z,60.60
2018-09-13T00:03:55.092Z,60.00
2018-09-13T00:06:22.517Z,59.40
2018-09-13T00:08:49.988Z,59.10
2018-09-13T00:11:17.441Z,59.00
2018-09-13T00:13:44.933Z,62.60
2018-09-13T00:16:12.410Z,66.00
2018-09-13T00:18:39.866Z,68.70
2018-09-13T00:21:07.333Z,66.30
2018-09-13T00:23:34.794Z,63.80
2018-09-13T00:26:02.273Z,62.60
2018-09-13T00:28:29.737Z,61.80
2018-09-13T00:30:57.393Z,60.60
2018-09-13T00:33:24.869Z,59.70
2018-09-13T00:35:52.319Z,59.30
2018-09-13T00:38:19.834Z,60.00
2018-09-13T00:40:47.306Z,64.30
2018-09-13T00:43:14.861Z,65.70
2018-09-13T00:45:42.299Z,64.20
2018-09-13T00:48:09.783Z,68.40
2018-09-13T00:50:37.235Z,69.70
2018-09-13T00:53:04.679Z,72.00
2018-09-13T00:55:32.134Z,72.10
2018-09-13T00:57:59.606Z,69.50
2018-09-13T01:00:27.039Z,69.90
2018-09-13T01:02:54.560Z,74.40
2018-09-13T01:05:22.035Z,75.20
2018-09-13T01:07:49.548Z,76.00
2018-09-13T01:10:17.103Z,73.90
2018-09-13T01:12:44.590Z,70.20
2018-09-13T01:15:12.053Z,67.70
2018-09-13T01:17:39.680Z,70.10
2018-09-13T01:20:07.145Z,68.50
2018-09-13T01:22:34.611Z,68.30
2018-09-13T01:25:02.087Z,70.70
2018-09-13T01:27:29.506Z,72.10
2018-09-13T01:29:57.590Z,74.30
2018-09-13T01:32:25.112Z,73.30
2018-09-13T01:34:52.981Z,69.10
2018-09-13T01:37:20.466Z,65.30
2018-09-13T01:39:47.993Z,66.70
2018-09-13T01:42:15.453Z,67.20
2018-09-13T01:44:42.904Z,65.20
2018-09-13T01:47:10.448Z,63.30
2018-09-13T01:49:38.153Z,62.10
2018-09-13T01:52:05.737Z,65.40
2018-09-13T01:54:33.215Z,67.60
2018-09-13T01:57:00.745Z,69.70
2018-09-13T01:59:28.197Z,72.10
2018-09-13T02:01:55.706Z,72.10
2018-09-13T02:04:23.142Z,70.80
2018-09-13T02:06:50.626Z,67.10
2018-09-13T02:09:18.115Z,64.40
2018-09-13T02:11:45.699Z,62.70
2018-09-13T02:14:13.226Z,64.50
2018-09-13T02:16:40.685Z,67.50
2018-09-13T02:19:08.094Z,67.70
2018-09-13T02:21:35.490Z,65.60
2018-09-13T02:24:02.954Z,62.70
2018-09-13T02:26:30.477Z,61.30
2018-09-13T02:28:58.031Z,62.60
2018-09-13T02:31:25.469Z,62.10
2018-09-13T02:33:52.966Z,64.50
2018-09-13T02:36:20.437Z,63.20
2018-09-13T02:38:47.959Z,62.00
2018-09-13T02:41:15.376Z,61.10
2018-09-13T02:43:42.899Z,63.90
2018-09-13T02:46:10.343Z,66.10
2018-09-13T02:48:37.763Z,67.50
2018-09-13T02:51:05.192Z,68.20
2018-09-13T02:53:32.683Z,69.80
2018-09-13T02:56:00.135Z,65.40
2018-09-13T02:58:27.576Z,66.40
2018-09-13T03:00:54.988Z,64.60
2018-09-13T03:03:22.573Z,62.30
2018-09-13T03:05:50.142Z,63.20
2018-09-13T03:08:17.832Z,63.00
2018-09-13T03:10:45.226Z,63.90
2018-09-13T03:13:12.659Z,62.50
2018-09-13T03:15:40.143Z,61.10
2018-09-13T03:18:07.742Z,60.30
2018-09-13T03:20:35.246Z,59.40
2018-09-13T03:23:02.777Z,61.70
2018-09-13T03:25:30.202Z,61.80
2018-09-13T03:27:57.661Z,61.00
2018-09-13T03:30:25.183Z,60.70
2018-09-13T03:32:52.673Z,60.10
2018-09-13T03:35:20.246Z,59.80
2018-09-13T03:37:47.703Z,59.80
2018-09-13T03:40:15.137Z,59.20
2018-09-13T03:42:42.590Z,59.10
2018-09-13T03:45:10.006Z,58.90
2018-09-13T03:47:37.467Z,58.70
2018-09-13T03:50:05.364Z,58.40
2018-09-13T03:52:32.774Z,58.20
2018-09-13T03:55:00.278Z,58.00
2018-09-13T03:57:27.771Z,59.00
2018-09-13T03:59:55.286Z,61.40
2018-09-13T04:02:22.781Z,62.20
2018-09-13T04:04:50.230Z,60.60
2018-09-13T04:07:17.837Z,58.80
2018-09-13T04:09:45.264Z,59.40
2018-09-13T04:12:12.713Z,59.10
2018-09-13T04:14:40.305Z,57.90
2018-09-13T04:17:07.872Z,60.70
2018-09-13T04:19:40.066Z,63.00
2018-09-13T04:22:07.530Z,63.70
2018-09-13T04:24:34.954Z,62.80
2018-09-13T04:27:02.434Z,61.60
2018-09-13T04:29:29.957Z,60.30
2018-09-13T04:31:57.387Z,59.70
2018-09-13T04:34:24.903Z,63.00
2018-09-13T04:36:52.549Z,67.50
2018-09-13T04:39:20.080Z,70.60
2018-09-13T04:41:47.602Z,68.30
2018-09-13T04:44:15.090Z,65.50
2018-09-13T04:46:42.517Z,63.80
2018-09-13T04:49:10.048Z,61.90
2018-09-13T04:51:37.411Z,61.00
2018-09-13T04:54:04.898Z,60.90
2018-09-13T04:56:32.333Z,62.00
2018-09-13T04:58:59.889Z,63.80
2018-09-13T05:01:27.302Z,65.30
2018-09-13T05:03:54.742Z,64.80
2018-09-13T05:06:22.254Z,67.30
2018-09-13T05:08:49.718Z,68.90
2018-09-13T05:11:17.141Z,69.80
2018-09-13T05:13:44.606Z,69.70
2018-09-13T05:16:12.057Z,68.50
2018-09-13T05:18:39.549Z,66.10
2018-09-13T05:21:06.963Z,63.80
2018-09-13T05:23:34.500Z,62.10
2018-09-13T05:26:01.927Z,61.00
2018-09-13T05:28:29.473Z,60.50
2018-09-13T05:30:57.034Z,60.00
2018-09-13T05:33:24.633Z,60.90
2018-09-13T05:35:52.042Z,63.30
2018-09-13T05:38:19.602Z,64.00
2018-09-13T05:40:47.046Z,66.70
2018-09-13T05:43:14.669Z,69.30
2018-09-13T05:45:42.109Z,71.10
2018-09-13T05:48:09.518Z,72.80
2018-09-13T05:50:37.033Z,74.60
2018-09-13T05:53:04.500Z,75.90
2018-09-13T05:55:31.923Z,73.80
2018-09-13T05:57:59.383Z,69.90
2018-09-13T06:00:26.825Z,70.20
2018-09-13T06:02:54.266Z,68.90
2018-09-13T06:05:21.749Z,67.10
2018-09-13T06:07:49.271Z,64.40
2018-09-13T06:10:16.992Z,63.00
2018-09-13T06:12:44.425Z,62.00
2018-09-13T06:15:11.865Z,61.80
2018-09-13T06:17:39.386Z,61.40
2018-09-13T06:20:06.944Z,60.80
2018-09-13T06:22:34.410Z,60.60
2018-09-13T06:25:01.814Z,61.10
2018-09-13T06:27:29.326Z,60.60
2018-09-13T06:29:56.796Z,59.90
2018-09-13T06:32:24.218Z,59.60
2018-09-13T06:34:51.679Z,59.20
2018-09-13T06:37:19.125Z,59.10
2018-09-13T06:39:46.678Z,59.10
2018-09-13T06:42:14.273Z,59.00
2018-09-13T06:44:41.696Z,59.00
2018-09-13T06:47:09.153Z,58.80
2018-09-13T06:49:36.565Z,58.80
2018-09-13T06:52:04.144Z,58.80
2018-09-13T06:54:31.586Z,58.70
2018-09-13T06:56:59.255Z,58.50
2018-09-13T06:59:26.704Z,58.50
2018-09-13T07:01:54.140Z,58.40
2018-09-13T07:04:21.629Z,58.30
2018-09-13T07:06:49.062Z,58.10
2018-09-13T07:09:16.630Z,58.10
2018-09-13T07:11:44.797Z,58.00
2018-09-13T07:14:12.268Z,57.80
2018-09-13T07:16:39.791Z,57.90
2018-09-13T07:19:07.218Z,57.80
2018-09-13T07:21:34.898Z,57.20
2018-09-13T07:24:02.776Z,56.70
2018-09-13T07:26:30.285Z,56.30
2018-09-13T07:28:57.769Z,55.70
2018-09-13T07:31:25.242Z,55.30
2018-09-13T07:33:52.829Z,55.50
2018-09-13T07:36:20.386Z,55.20
2018-09-13T07:38:48.046Z,54.70
2018-09-13T07:41:15.516Z,54.00
2018-09-13T07:43:42.962Z,53.60
2018-09-13T07:46:10.550Z,54.10
2018-09-13T07:48:37.970Z,54.00
2018-09-13T07:51:05.493Z,54.40
2018-09-13T07:53:33.000Z,54.60
2018-09-13T07:56:00.417Z,54.50
2018-09-13T07:58:27.883Z,53.90
2018-09-13T08:00:55.345Z,53.50
2018-09-13T08:03:23.105Z,55.30
2018-09-13T08:05:50.585Z,55.10
2018-09-13T08:08:18.118Z,54.50
2018-09-13T08:10:45.562Z,54.20
2018-09-13T08:13:13.004Z,53.30
2018-09-13T08:15:40.595Z,52.80
2018-09-13T08:18:08.142Z,52.40
2018-09-13T08:20:35.637Z,52.50
2018-09-13T08:23:03.093Z,52.80
2018-09-13T08:25:30.514Z,52.50
2018-09-13T08:27:57.941Z,51.30
2018-09-13T08:30:25.582Z,49.30
2018-09-13T08:32:52.989Z,49.00
2018-09-13T08:35:20.421Z,47.50
2018-09-13T08:37:47.842Z,50.10
2018-09-13T08:40:15.266Z,53.20
2018-09-13T08:42:42.718Z,53.90
2018-09-13T08:45:10.232Z,51.10
2018-09-13T08:47:37.864Z,50.40
2018-09-13T08:50:05.393Z,51.80
2018-09-13T08:52:32.912Z,52.30
2018-09-13T08:55:00.397Z,49.70
2018-09-13T08:57:27.801Z,48.60
2018-09-13T08:59:55.329Z,46.80
2018-09-13T09:02:22.862Z,47.20
2018-09-13T09:04:50.541Z,47.30
2018-09-13T09:07:18.033Z,48.10
2018-09-13T09:09:45.469Z,46.70
2018-09-13T09:12:12.958Z,47.40
2018-09-13T09:14:40.490Z,48.40
2018-09-13T09:17:08.010Z,49.70
2018-09-13T09:19:35.443Z,51.40
2018-09-13T09:22:03.012Z,52.00
2018-09-13T09:24:30.501Z,52.60
2018-09-13T09:26:57.946Z,51.90
2018-09-13T09:29:25.485Z,51.90
2018-09-13T09:31:53.014Z,51.70
2018-09-13T09:34:20.542Z,51.60
2018-09-13T09:36:48.082Z,51.60
2018-09-13T09:39:15.535Z,51.70
2018-09-13T09:41:43.249Z,51.80
2018-09-13T09:44:10.870Z,52.30
2018-09-13T09:46:38.921Z,53.20
2018-09-13T09:49:06.474Z,52.80
2018-09-13T09:51:33.994Z,53.10
2018-09-13T09:54:01.413Z,53.20
2018-09-13T09:56:28.926Z,53.50
2018-09-13T09:58:56.468Z,52.70
2018-09-13T10:01:29.610Z,51.70
2018-09-13T10:03:57.901Z,51.90
2018-09-13T10:06:25.341Z,52.40
2018-09-13T10:08:52.839Z,52.80
2018-09-13T10:11:20.218Z,52.60
2018-09-13T10:13:47.853Z,53.20
2018-09-13T10:16:21.005Z,53.80
2018-09-13T10:18:53.105Z,54.00
2018-09-13T10:21:26.448Z,53.40
2018-09-13T10:23:59.809Z,53.80
2018-09-13T10:26:34.496Z,53.20
2018-09-13T10:29:06.069Z,53.20
2018-09-13T10:31:39.078Z,53.10
2018-09-13T10:34:12.269Z,53.40
2018-09-13T10:36:45.339Z,53.50
2018-09-13T10:39:18.433Z,53.50
2018-09-13T10:41:51.646Z,53.70
2018-09-13T10:44:24.813Z,53.90
2018-09-13T10:46:57.909Z,54.00
2018-09-13T10:49:31.103Z,53.70
2018-09-13T10:52:08.304Z,53.10
2018-09-13T10:54:38.825Z,52.30
2018-09-13T10:57:12.142Z,51.30
2018-09-13T10:59:39.619Z,50.70
2018-09-13T11:02:07.125Z,50.50
2018-09-13T11:04:35.947Z,49.50
2018-09-13T11:07:03.420Z,49.70
2018-09-13T11:09:30.853Z,50.20
2018-09-13T11:11:58.345Z,50.40
2018-09-13T11:14:34.426Z,50.00
2018-09-13T11:17:01.938Z,49.60
2018-09-13T11:19:29.415Z,49.80
2018-09-13T11:21:56.935Z,49.30
2018-09-13T11:24:24.552Z,48.30
2018-09-13T11:26:52.021Z,48.00
2018-09-13T11:29:19.501Z,48.00
2018-09-13T11:31:46.992Z,48.20
2018-09-13T11:34:14.528Z,49.30
2018-09-13T11:36:41.984Z,50.30
2018-09-13T11:39:10.774Z,49.80
2018-09-13T11:41:38.234Z,49.10
2018-09-13T11:44:05.732Z,44.50
2018-09-13T11:46:33.146Z,43.60
2018-09-13T11:49:00.636Z,44.00
2018-09-13T11:51:28.097Z,44.70
2018-09-13T11:53:55.680Z,46.30
2018-09-13T11:56:23.181Z,47.60
2018-09-13T11:58:50.681Z,48.30
2018-09-13T12:01:18.137Z,48.10
2018-09-13T12:03:45.899Z,48.00
2018-09-13T12:06:13.349Z,48.00
2018-09-13T12:08:41.035Z,47.90
2018-09-13T12:11:08.460Z,48.20
2018-09-13T12:13:35.903Z,48.30
2018-09-13T12:16:03.365Z,48.70
2018-09-13T12:18:30.962Z,49.20
2018-09-13T12:20:58.367Z,49.20
2018-09-13T12:23:25.928Z,49.10
2018-09-13T12:25:53.351Z,48.90
2018-09-13T12:28:20.791Z,49.00
2018-09-13T12:30:48.242Z,49.00
2018-09-13T12:33:15.750Z,48.60
2018-09-13T12:35:43.211Z,48.40
2018-09-13T12:38:10.639Z,48.10
2018-09-13T12:40:38.137Z,48.20
2018-09-13T12:43:05.557Z,48.40
2018-09-13T12:45:33.072Z,48.70
2018-09-13T12:48:00.539Z,49.00
2018-09-13T12:50:28.015Z,48.90
2018-09-13T12:52:55.473Z,49.20
2018-09-13T12:55:27.496Z,49.50
2018-09-13T12:57:54.987Z,48.90
2018-09-13T13:00:22.486Z,48.90
2018-09-13T13:02:49.950Z,48.90
2018-09-13T13:05:17.438Z,48.70
2018-09-13T13:07:44.900Z,48.30
2018-09-13T13:10:12.394Z,48.30
2018-09-13T13:12:39.878Z,48.80
2018-09-13T13:15:07.376Z,48.90
2018-09-13T13:17:34.826Z,48.60
2018-09-13T13:20:02.333Z,48.40
2018-09-13T13:22:29.791Z,48.40
2018-09-13T13:24:57.217Z,48.00
2018-09-13T13:27:24.764Z,47.00
2018-09-13T13:29:52.168Z,45.50
2018-09-13T13:32:19.581Z,44.00
2018-09-13T13:34:47.078Z,42.00
2018-09-13T13:37:14.593Z,40.40
2018-09-13T13:39:42.318Z,40.00
2018-09-13T13:42:09.770Z,39.60
2018-09-13T13:44:37.214Z,39.50
2018-09-13T13:47:04.750Z,39.70
2018-09-13T13:49:32.275Z,37.30
2018-09-13T13:51:59.657Z,40.20
2018-09-13T13:54:27.142Z,42.40
2018-09-13T13:56:54.550Z,44.70
2018-09-13T13:59:22.032Z,46.00
2018-09-13T14:01:53.330Z,46.90
2018-09-13T14:04:20.833Z,47.20
2018-09-13T14:06:48.385Z,47.60
2018-09-13T14:09:16.036Z,47.30
2018-09-13T14:11:43.495Z,47.60
2018-09-13T14:14:11.081Z,47.90
2018-09-13T14:16:38.686Z,48.40
2018-09-13T14:19:06.197Z,48.60
2018-09-13T14:21:33.667Z,48.90
2018-09-13T14:24:01.134Z,48.70
2018-09-13T14:26:28.692Z,47.20
2018-09-13T14:28:56.222Z,45.80
2018-09-13T14:31:23.706Z,45.40
2018-09-13T14:33:51.127Z,45.40
2018-09-13T14:36:18.624Z,45.80
2018-09-13T14:38:46.061Z,46.30
2018-09-13T14:41:13.547Z,47.00
2018-09-13T14:43:41.046Z,47.50
2018-09-13T14:46:08.465Z,47.50
2018-09-13T14:48:36.009Z,47.70
2018-09-13T14:51:03.535Z,48.20
2018-09-13T14:53:30.981Z,48.40
2018-09-13T14:55:58.454Z,48.90
2018-09-13T14:58:25.923Z,48.50
2018-09-13T15:00:53.385Z,49.10
2018-09-13T15:03:20.894Z,49.30
2018-09-13T15:05:48.399Z,49.80
2018-09-13T15:08:15.830Z,50.10
2018-09-13T15:10:43.280Z,50.20
2018-09-13T15:13:10.802Z,50.30
2018-09-13T15:15:38.314Z,50.60
2018-09-13T15:18:05.794Z,50.60
2018-09-13T15:20:33.262Z,50.60
2018-09-13T15:23:00.716Z,50.80
2018-09-13T15:25:28.161Z,50.90
2018-09-13T15:27:55.623Z,51.00
2018-09-13T15:30:23.098Z,51.10
2018-09-13T15:32:50.606Z,51.10
2018-09-13T15:35:18.079Z,51.40
2018-09-13T15:37:46.225Z,51.60
2018-09-13T15:40:13.863Z,51.70
2018-09-13T15:42:47.935Z,51.70
2018-09-13T15:45:15.415Z,51.70
2018-09-13T15:47:42.914Z,51.90
2018-09-13T15:50:10.433Z,51.80
2018-09-13T15:52:37.898Z,51.70
2018-09-13T15:55:05.420Z,51.70
2018-09-13T15:57:32.889Z,51.50
2018-09-13T16:00:00.340Z,51.70
2018-09-13T16:02:27.882Z,51.60
2018-09-13T16:04:55.353Z,51.60
2018-09-13T16:07:22.822Z,51.90
2018-09-13T16:09:50.313Z,51.90
2018-09-13T16:12:17.829Z,52.20
2018-09-13T16:14:45.250Z,53.20
2018-09-13T16:17:12.721Z,54.80
2018-09-13T16:19:40.175Z,56.00
2018-09-13T16:22:07.654Z,58.50
2018-09-13T16:24:35.259Z,59.20
2018-09-13T16:27:02.761Z,60.80
2018-09-13T16:29:30.267Z,62.90
2018-09-13T16:31:57.705Z,65.40
2018-09-13T16:34:25.242Z,63.80
2018-09-13T16:37:03.662Z,64.40
2018-09-13T16:39:36.852Z,64.80
2018-09-13T16:42:10.270Z,66.40
2018-09-13T16:44:43.388Z,65.10
2018-09-13T16:47:16.578Z,64.30
2018-09-13T16:49:44.087Z,65.10
2018-09-13T16:52:11.593Z,66.80
2018-09-13T16:54:39.074Z,67.50
2018-09-13T16:57:06.563Z,65.70
2018-09-13T16:59:34.026Z,69.10
2018-09-13T17:02:01.569Z,74.00
2018-09-13T17:04:29.048Z,71.40
2018-09-13T17:06:56.626Z,71.20
2018-09-13T17:09:24.051Z,72.10
2018-09-13T17:11:51.535Z,68.40
2018-09-13T17:14:19.022Z,70.90
2018-09-13T17:16:46.503Z,68.40
2018-09-13T17:19:13.971Z,67.60
2018-09-13T17:21:41.597Z,68.90
2018-09-13T17:24:09.079Z,69.30
2018-09-13T17:26:36.551Z,68.90
2018-09-13T17:29:04.006Z,73.60
2018-09-13T17:31:31.550Z,73.70
2018-09-13T17:33:59.267Z,74.80
2018-09-13T17:36:27.009Z,70.70
2018-09-13T17:38:54.438Z,73.70
2018-09-13T17:41:21.908Z,74.90
2018-09-13T17:43:49.660Z,74.60
2018-09-13T17:46:17.177Z,73.00
2018-09-13T17:48:44.676Z,72.70
2018-09-13T17:51:12.164Z,74.00
2018-09-13T17:53:39.681Z,73.80
2018-09-13T17:56:07.141Z,74.30
2018-09-13T17:58:34.650Z,69.20
2018-09-13T18:01:02.120Z,67.20
2018-09-13T18:03:29.699Z,64.70
2018-09-13T18:05:57.335Z,62.00
2018-09-13T18:08:24.839Z,61.60
2018-09-13T18:10:52.315Z,60.90
2018-09-13T18:13:19.826Z,59.80
2018-09-13T18:15:47.306Z,59.20
2018-09-13T18:18:14.794Z,58.80
2018-09-13T18:20:42.259Z,58.70
2018-09-13T18:23:09.794Z,58.60
2018-09-13T18:25:37.377Z,58.30
2018-09-13T18:28:04.902Z,58.00
2018-09-13T18:30:32.514Z,57.70
2018-09-13T18:33:00.150Z,57.30
2018-09-13T18:35:27.659Z,56.00
2018-09-13T18:37:55.148Z,57.60
2018-09-13T18:40:22.707Z,57.80
2018-09-13T18:42:50.193Z,57.50
2018-09-13T18:45:17.735Z,58.30
2018-09-13T18:47:45.238Z,59.30
2018-09-13T18:50:12.767Z,59.10
2018-09-13T18:52:40.464Z,59.10
2018-09-13T18:55:08.011Z,58.70
2018-09-13T18:57:35.483Z,58.30
2018-09-13T19:00:03.382Z,58.00
2018-09-13T19:02:30.865Z,57.80
2018-09-13T19:04:58.390Z,57.50
2018-09-13T19:07:25.927Z,57.30
2018-09-13T19:09:53.432Z,57.00
2018-09-13T19:12:20.906Z,56.90
2018-09-13T19:14:48.498Z,56.90
2018-09-13T19:17:16.032Z,58.70
2018-09-13T19:19:43.571Z,60.00
2018-09-13T19:22:11.138Z,59.30
2018-09-13T19:24:38.710Z,58.60
2018-09-13T19:27:06.182Z,58.00
2018-09-13T19:29:33.674Z,57.50
2018-09-13T19:32:01.196Z,57.90
2018-09-13T19:34:28.656Z,57.10
2018-09-13T19:36:56.353Z,57.10
2018-09-13T19:39:23.827Z,56.90
2018-09-13T19:41:51.423Z,56.80
2018-09-13T19:44:18.909Z,56.70
2018-09-13T19:46:46.389Z,56.80
2018-09-13T19:49:13.930Z,57.20
2018-09-13T19:51:41.538Z,57.40
2018-09-13T19:54:09.048Z,57.50
2018-09-13T19:56:36.564Z,57.50
2018-09-13T19:59:04.247Z,57.90
2018-09-13T20:01:31.748Z,58.70
2018-09-13T20:03:59.254Z,59.30
2018-09-13T20:06:26.730Z,61.70
2018-09-13T20:08:54.338Z,65.40
2018-09-13T20:11:21.786Z,66.00
2018-09-13T20:13:49.439Z,64.50
2018-09-13T20:16:17.144Z,63.80
2018-09-13T20:18:44.748Z,61.80
2018-09-13T20:21:12.255Z,60.30
2018-09-13T20:23:39.726Z,59.50
2018-09-13T20:26:07.168Z,59.10
2018-09-13T20:28:34.671Z,58.60
2018-09-13T20:31:02.141Z,58.60
2018-09-13T20:33:29.641Z,58.30
2018-09-13T20:35:57.424Z,58.10
2018-09-13T20:38:25.008Z,58.30
2018-09-13T20:40:52.542Z,61.90
2018-09-13T20:43:20.047Z,65.10
2018-09-13T20:45:47.567Z,66.60
2018-09-13T20:48:15.054Z,65.20
2018-09-13T20:50:42.567Z,63.30
2018-09-13T20:53:10.089Z,64.60
2018-09-13T20:55:37.577Z,67.90
2018-09-13T20:58:05.073Z,70.70
2018-09-13T21:00:32.714Z,73.20
2018-09-13T21:03:00.992Z,76.10
2018-09-13T21:05:28.475Z,75.90
2018-09-13T21:07:55.958Z,75.30
2018-09-13T21:10:23.457Z,73.90
2018-09-13T21:12:50.982Z,72.40
2018-09-13T21:15:18.460Z,69.00
2018-09-13T21:17:45.960Z,65.90
2018-09-13T21:20:13.470Z,64.00
2018-09-13T21:22:40.924Z,62.70
2018-09-13T21:25:08.439Z,61.80
2018-09-13T21:27:35.924Z,61.10
2018-09-13T21:30:03.551Z,60.70
2018-09-13T21:32:31.064Z,61.30
2018-09-13T21:34:58.549Z,63.00
2018-09-13T21:37:26.054Z,64.80
2018-09-13T21:39:53.551Z,64.60
2018-09-13T21:42:21.059Z,62.80
2018-09-13T21:44:48.519Z,61.50
2018-09-13T21:47:15.998Z,60.40
2018-09-13T21:49:43.446Z,59.80
2018-09-13T21:52:10.934Z,59.50
2018-09-13T21:54:38.410Z,58.90
2018-09-13T21:57:06.043Z,60.30
2018-09-13T21:59:33.567Z,60.00
2018-09-13T22:02:01.056Z,59.50
2018-09-13T22:04:28.515Z,59.00
2018-09-13T22:06:56.009Z,59.30
2018-09-13T22:09:23.481Z,59.20
2018-09-13T22:11:51.027Z,58.90
2018-09-13T22:14:18.463Z,58.70
2018-09-13T22:16:45.950Z,58.60
2018-09-13T22:19:13.450Z,59.50
2018-09-13T22:21:40.890Z,63.40
2018-09-13T22:24:08.419Z,68.30
2018-09-13T22:26:35.922Z,70.30
2018-09-13T22:29:03.677Z,69.40
2018-09-13T22:31:31.213Z,69.80
2018-09-13T22:33:58.687Z,71.40
2018-09-13T22:36:26.206Z,73.70
2018-09-13T22:38:53.670Z,77.20
2018-09-13T22:41:21.172Z,79.20
2018-09-13T22:43:51.684Z,79.20
2018-09-13T22:46:20.558Z,78.90
2018-09-13T22:48:48.354Z,79.20
2018-09-13T22:51:16.134Z,74.60
2018-09-13T22:53:43.777Z,70.40
2018-09-13T22:56:11.331Z,66.90
2018-09-13T22:58:38.845Z,64.30
2018-09-13T23:01:06.361Z,66.90
2018-09-13T23:03:33.826Z,69.50
2018-09-13T23:06:01.277Z,69.80
2018-09-13T23:08:28.703Z,68.20
2018-09-13T23:10:56.238Z,66.80
2018-09-13T23:13:24.224Z,65.00
2018-09-13T23:15:51.695Z,63.80
2018-09-13T23:18:19.142Z,62.70
2018-09-13T23:20:46.604Z,64.30
2018-09-13T23:23:14.077Z,64.00
2018-09-13T23:25:41.519Z,64.60
2018-09-13T23:28:09.043Z,68.20
2018-09-13T23:30:36.923Z,69.50
2018-09-13T23:33:04.537Z,73.40
2018-09-13T23:35:31.980Z,74.40
2018-09-13T23:37:59.424Z,77.70
2018-09-13T23:40:27.131Z,78.90
2018-09-13T23:42:54.606Z,78.90
2018-09-13T23:45:22.062Z,75.80
2018-09-13T23:47:49.490Z,70.40
2018-09-13T23:50:16.930Z,68.60
2018-09-13T23:52:44.393Z,68.50
2018-09-13T23:55:11.957Z,66.70
2018-09-13T23:57:39.490Z,65.50
